Time;durP1;ratioP1;P1;durP2;ratioP2;P2;SDS_P1;SDS_P2;PMS_P1;PMS_P2;Temp;Humidity;BMP_temperature;BMP_pressure;BME280_temperature;BME280_humidity;BME280_pressure;Samples;Min_cycle;Max_cycle;Signal;HPM_P1;HPM_P2
2022/06/09 00:01:27;;;;;;;;;;;;;;;20.85;100.00;98160.81;5045306;28;19987;-46
2022/06/09 00:03:52;;;;;;;;;;;;;;;20.71;100.00;98153.38;5044785;28;19981;-49
2022/06/09 00:06:18;;;;;;;;;;;;;;;21.18;100.00;98160.59;5045428;28;19925;-48
2022/06/09 00:08:44;;;;;;;;;;;;;;;20.96;100.00;98156.41;5045526;28;19920;-48
2022/06/09 00:11:11;;;;;;;;;;;;;;;20.69;100.00;98165.75;5040770;28;20046;-48
2022/06/09 00:13:38;;;;;;;;;;;;;;;21.07;100.00;98169.38;5026634;28;20902;-48
2022/06/09 00:16:03;;;;;;;;;;;;;;;21.28;100.00;98167.50;5029734;28;19916;-47
2022/06/09 00:18:28;;;;;;;;;;;;;;;20.64;100.00;98181.00;5047471;28;19956;-47
2022/06/09 00:20:54;;;;;;;;;;;;;;;20.93;100.00;98175.03;5044850;28;19974;-49
2022/06/09 00:23:19;;;;;;;;;;;;;;;21.00;100.00;98178.75;5042364;28;19932;-49
2022/06/09 00:25:45;;;;;;;;;;;;;;;20.78;100.00;98183.25;5043718;28;20916;-48
2022/06/09 00:28:10;;;;;;;;;;;;;;;20.62;100.00;98180.31;5046448;28;19921;-48
2022/06/09 00:30:35;;;;;;;;;;;;;;;20.64;100.00;98184.47;5045064;28;19921;-51
2022/06/09 00:33:01;;;;;;;;;;;;;;;20.97;100.00;98189.50;5043497;28;19980;-51
2022/06/09 00:35:26;;;;;;;;;;;;;;;20.94;100.00;98194.97;5045134;28;19913;-47
2022/06/09 00:37:51;;;;;;;;;;;;;;;20.96;100.00;98200.91;5044880;28;19969;-48
2022/06/09 00:40:16;;;;;;;;;;;;;;;21.05;100.00;98198.34;5043792;28;20402;-51
2022/06/09 00:42:42;;;;;;;;;;;;;;;21.38;100.00;98200.72;5045041;28;20007;-47
2022/06/09 00:45:26;;;;;;;;;;;;;;;21.19;100.00;98193.66;5028540;28;19928;-49
2022/06/09 00:47:52;;;;;;;;;;;;;;;21.31;100.00;98198.63;5045125;28;20511;-47
2022/06/09 00:50:18;;;;;;;;;;;;;;;21.38;100.00;98192.84;5024817;28;19921;-46
2022/06/09 00:52:44;;;;;;;;;;;;;;;21.43;100.00;98201.97;5044093;28;19942;-48
2022/06/09 00:55:13;;;;;;;;;;;;;;;20.86;100.00;98199.09;5028055;28;20305;-46
2022/06/09 00:57:42;;;;;;;;;;;;;;;21.04;100.00;98196.66;5026144;28;19920;-45
2022/06/09 01:00:12;;;;;;;;;;;;;;;20.97;100.00;98200.78;5023759;28;19927;-46
2022/06/09 01:02:37;;;;;;;;;;;;;;;20.99;100.00;98192.81;5023433;28;19948;-45
2022/06/09 01:05:04;;;;;;;;;;;;;;;21.27;100.00;98191.19;5025039;28;20019;-47
2022/06/09 01:07:31;;;;;;;;;;;;;;;21.00;100.00;98189.22;5027950;28;20398;-48
2022/06/09 01:09:57;;;;;;;;;;;;;;;20.73;100.00;98198.50;5029084;28;19948;-47
2022/06/09 01:12:22;;;;;;;;;;;;;;;20.85;100.00;98197.47;5042393;28;20700;-49
2022/06/09 01:14:47;;;;;;;;;;;;;;;20.59;100.00;98204.13;5045933;28;19959;-48
2022/06/09 01:17:15;;;;;;;;;;;;;;;20.81;100.00;98200.47;5028326;28;19928;-47
2022/06/09 01:19:40;;;;;;;;;;;;;;;20.87;100.00;98199.97;5044193;28;19956;-49
2022/06/09 01:22:25;;;;;;;;;;;;;;;20.97;100.00;98210.44;5043588;28;20007;-47
2022/06/09 01:25:02;;;;;;;;;;;;;;;20.60;100.00;98209.22;5042342;28;19927;-46
2022/06/09 01:27:47;;;;;;;;;;;;;;;20.47;100.00;98209.41;5045235;28;19973;-51
2022/06/09 01:30:15;;;;;;;;;;;;;;;20.39;100.00;98211.88;5024177;28;19921;-47
2022/06/09 01:35:52;;;;;;;;;;;;;;;20.58;100.00;98212.94;5041260;28;20400;-49
2022/06/09 01:47:34;;;;;;;;;;;;;;;20.04;100.00;98223.47;5041082;28;20376;-49
2022/06/09 01:49:59;;;;;;;;;;;;;;;20.02;100.00;98228.00;5041892;28;19917;-46
2022/06/09 01:52:25;;;;;;;;;;;;;;;19.86;100.00;98235.47;5025605;28;20027;-45
2022/06/09 01:54:50;;;;;;;;;;;;;;;19.94;100.00;98229.63;5027371;28;19945;-45
2022/06/09 01:57:17;;;;;;;;;;;;;;;19.58;100.00;98237.69;5024613;28;19921;-45
2022/06/09 01:59:47;;;;;;;;;;;;;;;20.19;100.00;98237.06;5025561;28;19927;-46
2022/06/09 02:02:16;;;;;;;;;;;;;;;19.80;100.00;98236.81;5025157;28;19925;-39
2022/06/09 02:04:44;;;;;;;;;;;;;;;19.35;100.00;98243.97;5027186;28;20808;-39
2022/06/09 02:07:10;;;;;;;;;;;;;;;19.70;100.00;98235.06;5045417;28;19923;-47
2022/06/09 02:09:37;;;;;;;;;;;;;;;19.51;100.00;98233.09;5024798;28;19916;-47
2022/06/09 02:12:04;;;;;;;;;;;;;;;19.55;100.00;98237.97;5021630;28;20039;-45
2022/06/09 02:14:30;;;;;;;;;;;;;;;19.38;100.00;98235.88;5041979;28;19921;-48
2022/06/09 02:16:55;;;;;;;;;;;;;;;19.03;100.00;98242.13;5043879;28;19970;-49
2022/06/09 02:19:22;;;;;;;;;;;;;;;19.50;100.00;98240.13;5025769;28;19924;-46
2022/06/09 02:24:50;;;;;;;;;;;;;;;19.62;100.00;98241.72;5043771;28;19971;-49
2022/06/09 02:27:33;;;;;;;;;;;;;;;19.35;100.00;98236.13;5043695;28;20031;-46
2022/06/09 02:29:59;;;;;;;;;;;;;;;19.10;100.00;98242.47;5044572;28;19958;-46
2022/06/09 02:35:33;;;;;;;;;;;;;;;18.73;100.00;98250.53;5042341;28;20008;-46
2022/06/09 02:38:01;;;;;;;;;;;;;;;18.99;100.00;98256.34;5041668;28;19921;-39
2022/06/09 02:40:27;;;;;;;;;;;;;;;18.62;100.00;98251.38;5041949;28;19927;-39
2022/06/09 02:42:53;;;;;;;;;;;;;;;19.43;100.00;98241.53;5023088;28;19925;-39
2022/06/09 02:45:18;;;;;;;;;;;;;;;18.80;100.00;98262.19;5044327;28;19916;-39
2022/06/09 02:47:44;;;;;;;;;;;;;;;18.75;100.00;98259.09;5042264;28;19932;-39
2022/06/09 02:56:15;;;;;;;;;;;;;;;19.16;100.00;98255.03;5043735;28;19924;-39
2022/06/09 02:58:41;;;;;;;;;;;;;;;19.34;100.00;98260.56;5042611;28;19920;-39
2022/06/09 06:04:03;;;;;;;;;;;;;;;20.32;100.00;98438.22;5042685;28;19923;-50
2022/06/09 06:06:34;;;;;;;;;;;;;;;20.35;100.00;98445.81;5046097;28;20428;-49
2022/06/09 06:09:10;;;;;;;;;;;;;;;20.01;100.00;98443.28;5042838;28;20015;-53
2022/06/09 06:11:36;;;;;;;;;;;;;;;20.24;100.00;98464.97;5047098;28;20007;-51
2022/06/09 06:14:02;;;;;;;;;;;;;;;20.41;100.00;98461.03;5043277;28;20026;-51
2022/06/09 06:16:27;;;;;;;;;;;;;;;20.55;100.00;98469.50;5044572;28;20043;-53
2022/06/09 06:18:53;;;;;;;;;;;;;;;19.99;100.00;98466.13;5045261;28;19923;-53
2022/06/09 06:21:18;;;;;;;;;;;;;;;20.25;100.00;98471.88;5043839;28;19924;-53
2022/06/09 06:23:43;;;;;;;;;;;;;;;20.42;100.00;98467.91;5043467;28;19913;-52
2022/06/09 06:26:09;;;;;;;;;;;;;;;19.97;100.00;98475.84;5044192;28;20717;-52
2022/06/09 06:28:34;;;;;;;;;;;;;;;20.00;100.00;98483.47;5045002;28;20255;-51
2022/06/09 06:31:00;;;;;;;;;;;;;;;19.71;100.00;98480.53;5042813;28;20700;-51
2022/06/09 06:33:25;;;;;;;;;;;;;;;19.73;100.00;98483.00;5044387;28;19966;-53
2022/06/09 06:35:50;;;;;;;;;;;;;;;19.32;100.00;98487.03;5043645;28;20313;-51
2022/06/09 06:38:16;;;;;;;;;;;;;;;20.59;100.00;98491.88;5044114;28;19924;-51
2022/06/09 06:40:41;;;;;;;;;;;;;;;20.06;100.00;98506.50;5041506;28;19962;-52
2022/06/09 06:43:06;;;;;;;;;;;;;;;19.29;100.00;98508.94;5042161;28;19960;-53
2022/06/09 06:45:32;;;;;;;;;;;;;;;19.26;100.00;98518.81;5045329;28;20024;-50
2022/06/09 06:47:57;;;;;;;;;;;;;;;20.09;100.00;98520.28;5043062;28;20007;-52
2022/06/09 06:50:22;;;;;;;;;;;;;;;19.92;100.00;98517.22;5043626;28;20598;-53
2022/06/09 06:52:47;;;;;;;;;;;;;;;20.05;100.00;98524.94;5027672;28;20360;-49
2022/06/09 06:55:13;;;;;;;;;;;;;;;20.39;100.00;98525.69;5045051;28;20009;-53
2022/06/09 06:57:39;;;;;;;;;;;;;;;20.08;100.00;98523.84;5027534;28;20396;-50
2022/06/09 07:00:05;;;;;;;;;;;;;;;20.11;100.00;98526.22;5025139;28;19920;-51
2022/06/09 07:02:30;;;;;;;;;;;;;;;20.72;100.00;98538.81;5045827;28;19920;-50
2022/06/09 07:04:55;;;;;;;;;;;;;;;21.39;100.00;98529.78;5044717;28;19924;-52
2022/06/09 07:07:21;;;;;;;;;;;;;;;21.72;100.00;98534.81;5044489;28;19927;-50
2022/06/09 07:09:46;;;;;;;;;;;;;;;21.04;100.00;98541.41;5025491;28;19924;-54
2022/06/09 07:12:11;;;;;;;;;;;;;;;21.37;100.00;98547.41;5030529;28;19916;-51
2022/06/09 07:14:36;;;;;;;;;;;;;;;21.97;100.00;98551.06;5048022;28;19921;-54
2022/06/09 07:17:02;;;;;;;;;;;;;;;21.69;100.00;98558.69;5047749;28;20028;-50
2022/06/09 07:19:29;;;;;;;;;;;;;;;21.78;100.00;98562.31;5045882;28;20380;-49
2022/06/09 07:21:54;;;;;;;;;;;;;;;21.26;100.00;98572.72;5048700;28;19987;-53
2022/06/09 07:24:19;;;;;;;;;;;;;;;20.29;100.00;98577.06;5046487;28;21019;-54
2022/06/09 07:26:45;;;;;;;;;;;;;;;20.48;100.00;98574.66;5047368;28;19916;-52
2022/06/09 07:29:10;;;;;;;;;;;;;;;20.86;100.00;98581.22;5046103;28;19928;-53
2022/06/09 07:31:35;;;;;;;;;;;;;;;21.30;100.00;98582.00;5047340;28;19939;-52
2022/06/09 07:34:00;;;;;;;;;;;;;;;21.79;100.00;98579.69;5048201;28;20471;-53
2022/06/09 07:36:26;;;;;;;;;;;;;;;21.67;100.00;98581.56;5046339;28;19963;-53
2022/06/09 07:38:51;;;;;;;;;;;;;;;21.33;100.00;98593.19;5045708;28;19970;-53
2022/06/09 07:41:19;;;;;;;;;;;;;;;21.62;100.00;98599.47;5046538;28;20442;-53
2022/06/09 07:43:45;;;;;;;;;;;;;;;21.05;100.00;98598.03;5048618;28;19983;-54
2022/06/09 07:46:11;;;;;;;;;;;;;;;21.52;100.00;98596.78;5030389;28;19920;-53
2022/06/09 07:48:36;;;;;;;;;;;;;;;20.82;100.00;98605.16;5050353;28;19917;-54
2022/06/09 07:51:02;;;;;;;;;;;;;;;21.06;100.00;98613.63;5044774;28;20414;-53
2022/06/09 07:53:27;;;;;;;;;;;;;;;21.69;100.00;98605.00;5045783;28;19916;-53
2022/06/09 07:55:52;;;;;;;;;;;;;;;21.49;100.00;98615.38;5041744;28;20833;-54
2022/06/09 07:58:18;;;;;;;;;;;;;;;21.00;100.00;98615.91;5044979;28;20294;-53
2022/06/09 08:00:44;;;;;;;;;;;;;;;21.55;100.00;98614.03;5044704;28;19917;-50
2022/06/09 08:03:11;;;;;;;;;;;;;;;21.83;100.00;98617.78;5045313;28;19924;-52
2022/06/09 08:05:36;;;;;;;;;;;;;;;22.16;100.00;98615.88;5027837;28;19952;-53
2022/06/09 08:08:02;;;;;;;;;;;;;;;21.97;100.00;98624.50;5044207;28;20004;-54
2022/06/09 08:10:28;;;;;;;;;;;;;;;22.49;100.00;98608.69;5045019;28;19916;-53
2022/06/09 08:12:55;;;;;;;;;;;;;;;22.48;100.00;98617.53;5047725;28;19951;-52
2022/06/09 08:15:21;;;;;;;;;;;;;;;22.84;100.00;98623.13;5046283;28;19919;-56
2022/06/09 08:17:46;;;;;;;;;;;;;;;21.29;100.00;98631.88;5046235;28;19917;-55
2022/06/09 08:20:12;;;;;;;;;;;;;;;21.19;100.00;98629.19;5045397;28;19916;-55
2022/06/09 08:22:40;;;;;;;;;;;;;;;21.99;100.00;98622.56;5025227;28;19920;-56
2022/06/09 08:25:07;;;;;;;;;;;;;;;22.35;100.00;98628.25;5045166;28;19912;-56
2022/06/09 08:27:33;;;;;;;;;;;;;;;23.63;100.00;98624.78;5044588;28;19920;-54
2022/06/09 08:29:58;;;;;;;;;;;;;;;23.96;100.00;98631.38;5049531;28;19923;-56
2022/06/09 08:32:23;;;;;;;;;;;;;;;23.08;100.00;98639.38;5048567;28;19950;-55
2022/06/09 08:34:48;;;;;;;;;;;;;;;22.20;100.00;98640.88;5045038;28;19951;-52
2022/06/09 08:37:13;;;;;;;;;;;;;;;22.47;100.00;98642.94;5026962;28;19959;-52
2022/06/09 08:39:39;;;;;;;;;;;;;;;21.81;100.00;98660.81;5040827;28;19955;-54
2022/06/09 08:42:07;;;;;;;;;;;;;;;22.44;100.00;98653.72;5044380;28;19956;-54
2022/06/09 08:44:38;;;;;;;;;;;;;;;22.68;100.00;98660.41;5046330;28;19920;-53
2022/06/09 08:47:08;;;;;;;;;;;;;;;23.33;100.00;98659.00;5044971;28;19924;-53
2022/06/09 08:49:47;;;;;;;;;;;;;;;23.17;100.00;98666.56;5028762;28;19916;-52
2022/06/09 08:52:28;;;;;;;;;;;;;;;22.04;100.00;98670.19;5028438;28;20482;-53
2022/06/09 08:54:54;;;;;;;;;;;;;;;22.17;100.00;98677.00;5025425;28;19966;-55
2022/06/09 08:57:21;;;;;;;;;;;;;;;21.72;100.00;98681.59;5047037;28;19916;-53
2022/06/09 08:59:49;;;;;;;;;;;;;;;22.53;100.00;98668.66;5026409;28;19920;-54
2022/06/09 09:02:34;;;;;;;;;;;;;;;22.90;100.00;98669.84;5027604;28;20016;-55
2022/06/09 09:05:20;;;;;;;;;;;;;;;22.76;100.00;98679.78;5045602;28;19916;-56
2022/06/09 09:07:46;;;;;;;;;;;;;;;22.33;100.00;98675.63;5043689;28;19938;-56
2022/06/09 09:10:18;;;;;;;;;;;;;;;22.76;100.00;98678.91;5028343;28;20058;-54
2022/06/09 09:12:58;;;;;;;;;;;;;;;22.41;100.00;98687.25;5043052;28;19916;-55
2022/06/09 09:15:30;;;;;;;;;;;;;;;22.05;100.00;98682.34;5043084;28;20381;-55
2022/06/09 09:18:02;;;;;;;;;;;;;;;21.47;100.00;98687.22;5044904;28;20304;-55
2022/06/09 09:20:37;;;;;;;;;;;;;;;21.31;100.00;98688.41;5041231;28;20471;-54
2022/06/09 09:23:02;;;;;;;;;;;;;;;22.56;100.00;98683.31;5043731;28;20040;-53
2022/06/09 09:25:33;;;;;;;;;;;;;;;23.82;100.00;98679.19;5044332;28;20999;-56
2022/06/09 09:28:19;;;;;;;;;;;;;;;23.78;100.00;98679.44;5043646;28;19923;-56
2022/06/09 09:31:03;;;;;;;;;;;;;;;24.19;100.00;98687.09;5041982;28;20700;-52
2022/06/09 09:33:28;;;;;;;;;;;;;;;24.56;100.00;98681.88;5043786;28;19913;-53
2022/06/09 09:36:05;;;;;;;;;;;;;;;24.80;100.00;98683.13;5027758;28;19948;-52
2022/06/09 09:38:34;;;;;;;;;;;;;;;24.49;100.00;98685.22;5043083;28;19924;-51
2022/06/09 09:41:00;;;;;;;;;;;;;;;25.05;100.00;98681.59;5041441;28;19921;-52
2022/06/09 09:43:26;;;;;;;;;;;;;;;25.41;100.00;98686.91;5045096;28;20612;-50
2022/06/09 09:45:53;;;;;;;;;;;;;;;24.20;100.00;98694.88;5026619;28;19921;-52
2022/06/09 09:48:19;;;;;;;;;;;;;;;25.05;100.00;98695.59;5023799;28;20332;-52
2022/06/09 09:50:56;;;;;;;;;;;;;;;24.91;100.00;98692.66;5042162;28;19947;-52
2022/06/09 09:53:22;;;;;;;;;;;;;;;24.67;100.00;98704.53;5041844;28;20003;-50
2022/06/09 09:55:50;;;;;;;;;;;;;;;23.72;100.00;98702.81;5043210;28;19954;-52
2022/06/09 09:58:24;;;;;;;;;;;;;;;24.14;100.00;98703.31;5044190;28;19974;-54
2022/06/09 10:00:54;;;;;;;;;;;;;;;25.33;100.00;98705.28;5041786;28;19921;-52
2022/06/09 10:09:03;;;;;;;;;;;;;;;25.07;100.00;98711.25;5026066;28;19923;-52
2022/06/09 10:14:27;;;;;;;;;;;;;;;27.08;100.00;98696.28;5027251;28;19924;-53
2022/06/09 10:16:53;;;;;;;;;;;;;;;23.59;100.00;98713.63;5042744;28;19993;-52
2022/06/09 10:19:19;;;;;;;;;;;;;;;25.29;100.00;98699.47;5027349;28;20378;-50
2022/06/09 10:21:49;;;;;;;;;;;;;;;26.25;100.00;98698.72;5026499;28;19921;-55
2022/06/09 10:24:14;;;;;;;;;;;;;;;25.16;100.00;98704.28;5044526;28;19916;-54
2022/06/09 10:26:39;;;;;;;;;;;;;;;23.38;100.00;98714.59;5025623;28;20286;-54
2022/06/09 10:29:04;;;;;;;;;;;;;;;26.14;100.00;98704.28;5024605;28;19916;-49
2022/06/09 10:31:36;;;;;;;;;;;;;;;24.53;100.00;98713.75;5045709;28;20073;-54
2022/06/09 10:34:10;;;;;;;;;;;;;;;23.90;100.00;98716.09;5043628;28;19921;-53
2022/06/09 10:36:49;;;;;;;;;;;;;;;24.24;100.00;98715.63;5039861;28;20488;-54
2022/06/09 10:39:26;;;;;;;;;;;;;;;25.42;100.00;98715.75;5043981;28;20705;-38
2022/06/09 10:42:14;;;;;;;;;;;;;;;25.61;100.00;98724.47;5042793;28;19940;-38
2022/06/09 10:45:03;;;;;;;;;;;;;;;27.12;100.00;98713.47;5041801;28;19946;-38
2022/06/09 10:56:12;;;;;;;;;;;;;;;24.45;100.00;98726.78;5044179;28;20044;-38
2022/06/09 10:58:49;;;;;;;;;;;;;;;25.01;100.00;98728.47;5030713;28;19921;-38
2022/06/09 11:01:18;;;;;;;;;;;;;;;26.99;100.00;98718.41;5044966;28;19923;-38
2022/06/09 11:03:45;;;;;;;;;;;;;;;28.43;92.70;98710.00;5046463;28;20877;-38
2022/06/09 11:06:25;;;;;;;;;;;;;;;27.85;88.97;98717.22;5026141;28;19924;-38
2022/06/09 11:08:53;;;;;;;;;;;;;;;27.02;93.03;98719.88;5046057;28;20622;-38
2022/06/09 11:11:39;;;;;;;;;;;;;;;27.37;94.06;98712.72;5046219;28;20401;-38
2022/06/09 11:14:11;;;;;;;;;;;;;;;27.38;88.72;98712.56;5013788;28;19921;-38
2022/06/09 11:16:42;;;;;;;;;;;;;;;28.63;88.63;98714.94;5047536;28;20544;-38
2022/06/09 11:19:08;;;;;;;;;;;;;;;26.71;95.66;98738.94;5029004;28;19917;-38
2022/06/09 11:21:36;;;;;;;;;;;;;;;26.40;95.89;98728.03;5044784;28;20735;-38
2022/06/09 11:24:09;;;;;;;;;;;;;;;25.27;100.00;98733.06;5046654;28;20017;-38
2022/06/09 11:26:37;;;;;;;;;;;;;;;25.99;100.00;98731.22;5027787;28;19993;-38
2022/06/09 11:29:03;;;;;;;;;;;;;;;28.23;88.56;98722.78;5042668;28;20006;-38
2022/06/09 11:31:31;;;;;;;;;;;;;;;29.51;83.09;98719.88;5046325;28;20059;-38
2022/06/09 11:33:59;;;;;;;;;;;;;;;26.41;93.77;98745.50;5045944;28;19947;-38
2022/06/09 11:36:24;;;;;;;;;;;;;;;26.21;96.31;98748.38;5048592;28;20415;-38
2022/06/09 11:38:51;;;;;;;;;;;;;;;27.80;87.35;98730.06;5030160;28;19921;-38
2022/06/09 11:41:17;;;;;;;;;;;;;;;29.31;83.31;98735.47;5028886;28;19916;-38
2022/06/09 11:43:45;;;;;;;;;;;;;;;27.84;86.02;98742.03;5047934;28;20465;-39
2022/06/09 11:46:22;;;;;;;;;;;;;;;26.24;94.46;98742.78;5044727;28;19923;-38
2022/06/09 11:48:48;;;;;;;;;;;;;;;27.70;89.52;98745.31;5008738;28;19953;-38
2022/06/09 11:51:17;;;;;;;;;;;;;;;28.83;86.06;98753.28;5026312;28;19995;-38
2022/06/09 11:53:57;;;;;;;;;;;;;;;28.59;81.96;98751.53;5043989;28;19999;-38
2022/06/09 11:56:36;;;;;;;;;;;;;;;29.14;80.66;98758.59;5023364;28;19916;-38
2022/06/09 11:59:14;;;;;;;;;;;;;;;24.96;94.52;98790.50;5045143;28;20043;-38
2022/06/09 12:01:40;;;;;;;;;;;;;;;22.75;97.07;98795.41;5028267;28;19925;-38
2022/06/09 12:04:05;;;;;;;;;;;;;;;21.55;100.00;98813.16;5042822;28;20381;-38
2022/06/09 12:06:39;;;;;;;;;;;;;;;22.17;100.00;98813.41;5044439;28;19927;-38
2022/06/09 12:09:23;;;;;;;;;;;;;;;21.91;100.00;98834.75;5045627;28;19951;-38
2022/06/09 12:11:56;;;;;;;;;;;;;;;20.37;100.00;98851.09;5046841;28;19927;-38
2022/06/09 12:14:27;;;;;;;;;;;;;;;19.79;100.00;98845.72;5024813;28;19931;-38
2022/06/09 12:16:58;;;;;;;;;;;;;;;19.46;100.00;98844.56;5025528;28;19921;-38
2022/06/09 12:19:25;;;;;;;;;;;;;;;18.77;100.00;98872.84;5041151;28;19970;-38
2022/06/09 12:21:55;;;;;;;;;;;;;;;18.55;100.00;98878.66;5022184;28;19929;-38
2022/06/09 12:24:30;;;;;;;;;;;;;;;18.65;100.00;98884.09;5043469;28;20412;-39
2022/06/09 12:27:01;;;;;;;;;;;;;;;17.96;100.00;98890.28;5044772;28;19920;-40
2022/06/09 12:29:37;;;;;;;;;;;;;;;18.66;100.00;98884.00;5024633;28;19931;-40
2022/06/09 12:32:09;;;;;;;;;;;;;;;19.08;100.00;98881.19;5028964;28;19924;-40
2022/06/09 12:34:37;;;;;;;;;;;;;;;19.40;100.00;98881.56;5045314;28;19913;-41
2022/06/09 12:37:02;;;;;;;;;;;;;;;18.96;100.00;98893.31;5046416;28;19923;-40
2022/06/09 12:39:36;;;;;;;;;;;;;;;19.51;100.00;98892.09;5027575;28;19920;-40
2022/06/09 12:42:03;;;;;;;;;;;;;;;19.57;100.00;98898.69;5044288;28;19920;-40
2022/06/09 12:44:28;;;;;;;;;;;;;;;19.48;100.00;98894.94;5044158;28;20012;-40
2022/06/09 12:46:55;;;;;;;;;;;;;;;18.91;100.00;98906.69;5043437;28;19917;-45
2022/06/09 12:49:24;;;;;;;;;;;;;;;18.79;100.00;98908.34;5026275;28;19921;-46
2022/06/09 12:51:50;;;;;;;;;;;;;;;19.25;100.00;98906.13;5027138;28;19924;-48
2022/06/09 12:54:32;;;;;;;;;;;;;;;19.65;100.00;98907.63;5024213;28;19981;-45
2022/06/09 12:57:05;;;;;;;;;;;;;;;19.51;100.00;98917.38;5040822;28;19955;-45
2022/06/09 12:59:35;;;;;;;;;;;;;;;19.51;100.00;98920.81;5023572;28;19939;-47
2022/06/09 13:02:03;;;;;;;;;;;;;;;20.29;100.00;98911.78;5041839;28;20058;-49
2022/06/09 13:04:30;;;;;;;;;;;;;;;21.26;100.00;98923.69;5043794;28;19935;-47
2022/06/09 13:06:56;;;;;;;;;;;;;;;21.22;100.00;98926.66;5042559;28;19917;-46
2022/06/09 13:09:23;;;;;;;;;;;;;;;21.52;100.00;98928.72;5044428;28;20784;-47
2022/06/09 13:14:36;;;;;;;;;;;;;;;22.51;100.00;98925.16;5029365;28;20509;-47
2022/06/09 13:17:06;;;;;;;;;;;;;;;22.87;100.00;98927.44;5040958;28;19916;-50
2022/06/09 13:19:32;;;;;;;;;;;;;;;22.22;100.00;98926.69;5025484;28;19920;-48
2022/06/09 13:21:59;;;;;;;;;;;;;;;22.20;100.00;98923.34;5024290;28;20446;-46
2022/06/09 13:24:24;;;;;;;;;;;;;;;22.68;100.00;98930.78;5025039;28;19954;-50
2022/06/09 13:26:50;;;;;;;;;;;;;;;23.02;100.00;98931.44;5038090;28;19921;-44
2022/06/09 13:29:21;;;;;;;;;;;;;;;22.92;100.00;98936.63;5042308;28;20915;-45
2022/06/09 13:31:47;;;;;;;;;;;;;;;22.54;100.00;98938.00;5024831;28;19959;-47
2022/06/09 13:34:12;;;;;;;;;;;;;;;22.42;100.00;98938.16;5044175;28;19924;-47
2022/06/09 13:36:39;;;;;;;;;;;;;;;22.93;100.00;98940.06;5045139;28;19916;-43
2022/06/09 13:39:22;;;;;;;;;;;;;;;23.63;100.00;98938.47;5022890;28;19962;-46
2022/06/09 13:41:48;;;;;;;;;;;;;;;24.04;100.00;98941.94;5040823;28;19943;-44
2022/06/09 13:44:17;;;;;;;;;;;;;;;23.94;100.00;98943.69;5026593;28;19916;-46
2022/06/09 13:47:10;;;;;;;;;;;;;;;24.40;100.00;98942.22;5023112;28;19970;-47
2022/06/09 13:49:43;;;;;;;;;;;;;;;24.13;100.00;98943.75;5033953;28;19978;-46
2022/06/09 13:52:26;;;;;;;;;;;;;;;24.52;100.00;98933.25;5042711;28;19923;-48
2022/06/09 13:54:52;;;;;;;;;;;;;;;24.28;100.00;98936.25;5043340;28;19928;-47
2022/06/09 13:57:22;;;;;;;;;;;;;;;24.61;100.00;98937.69;5044748;28;20393;-45
2022/06/09 13:59:48;;;;;;;;;;;;;;;25.34;100.00;98942.38;5041455;28;19956;-46
2022/06/09 14:02:18;;;;;;;;;;;;;;;26.04;100.00;98947.16;5025322;28;20555;-47
2022/06/09 14:04:43;;;;;;;;;;;;;;;26.23;100.00;98941.78;5043716;28;19916;-47
2022/06/09 14:07:15;;;;;;;;;;;;;;;25.18;100.00;98950.91;5038190;28;19917;-47
2022/06/09 14:09:41;;;;;;;;;;;;;;;23.95;100.00;98963.78;5041933;28;19924;-48
2022/06/09 14:12:07;;;;;;;;;;;;;;;23.69;100.00;98966.03;5042239;28;19920;-48
2022/06/09 14:14:33;;;;;;;;;;;;;;;22.92;100.00;98968.13;5041458;28;19948;-49
2022/06/09 14:16:58;;;;;;;;;;;;;;;21.81;100.00;98976.22;5040956;28;20448;-51
2022/06/09 14:19:23;;;;;;;;;;;;;;;22.65;100.00;98966.00;5040084;28;20960;-47
2022/06/09 14:21:48;;;;;;;;;;;;;;;22.28;100.00;98969.00;5024489;28;19931;-49
2022/06/09 14:24:18;;;;;;;;;;;;;;;22.47;100.00;98978.84;5040492;28;20360;-48
2022/06/09 14:26:44;;;;;;;;;;;;;;;22.60;100.00;98989.16;5021387;28;21111;-50
2022/06/09 14:29:10;;;;;;;;;;;;;;;22.80;100.00;98987.50;5043500;28;19922;-51
2022/06/09 14:31:35;;;;;;;;;;;;;;;23.05;100.00;98990.75;5024775;28;19916;-52
2022/06/09 14:34:00;;;;;;;;;;;;;;;23.55;100.00;98986.44;5038750;28;19932;-48
2022/06/09 14:36:27;;;;;;;;;;;;;;;24.14;100.00;98991.94;5043577;28;19967;-49
2022/06/09 14:38:53;;;;;;;;;;;;;;;23.42;100.00;98996.34;5040242;28;20000;-48
2022/06/09 14:41:18;;;;;;;;;;;;;;;24.26;100.00;98995.25;5039959;28;19923;-48
2022/06/09 14:43:44;;;;;;;;;;;;;;;24.96;100.00;98994.19;5045061;28;19916;-49
2022/06/09 14:46:10;;;;;;;;;;;;;;;25.39;100.00;99000.78;5024987;28;19969;-49
2022/06/09 14:48:35;;;;;;;;;;;;;;;25.12;100.00;98995.41;5023132;28;19956;-48
2022/06/09 14:51:00;;;;;;;;;;;;;;;24.89;100.00;98998.34;5042148;28;19955;-52
2022/06/09 14:53:26;;;;;;;;;;;;;;;25.14;100.00;99007.47;5041093;28;19921;-49
2022/06/09 14:55:52;;;;;;;;;;;;;;;25.46;100.00;99009.78;5040532;28;19921;-50
2022/06/09 14:58:19;;;;;;;;;;;;;;;24.15;100.00;99020.75;5023336;28;19927;-49
2022/06/09 15:00:45;;;;;;;;;;;;;;;23.25;100.00;99026.69;5041447;28;20013;-51
2022/06/09 15:03:10;;;;;;;;;;;;;;;23.35;100.00;99030.19;5042685;28;20578;-51
2022/06/09 15:05:35;;;;;;;;;;;;;;;23.18;100.00;99028.16;5041371;28;19917;-50
2022/06/09 15:08:01;;;;;;;;;;;;;;;24.56;100.00;99012.78;5039693;28;19925;-52
2022/06/09 15:10:38;;;;;;;;;;;;;;;25.27;100.00;99015.09;5020525;28;19916;-51
2022/06/09 15:13:05;;;;;;;;;;;;;;;25.64;100.00;99014.28;5044454;28;19974;-52
2022/06/09 15:15:30;;;;;;;;;;;;;;;25.18;100.00;99023.81;5038785;28;20011;-51
2022/06/09 15:17:56;;;;;;;;;;;;;;;25.15;100.00;99024.09;5039011;28;19925;-51
2022/06/09 15:20:25;;;;;;;;;;;;;;;25.39;100.00;99026.31;5038794;28;19928;-50
2022/06/09 15:22:50;;;;;;;;;;;;;;;25.49;100.00;99026.28;5043170;28;19928;-51
2022/06/09 15:25:16;;;;;;;;;;;;;;;25.18;100.00;99029.09;5040551;28;20327;-51
2022/06/09 15:27:41;;;;;;;;;;;;;;;24.87;100.00;99037.19;5037308;28;19976;-49
2022/06/09 15:30:07;;;;;;;;;;;;;;;25.99;100.00;99033.88;5043194;28;19938;-50
2022/06/09 15:32:33;;;;;;;;;;;;;;;25.88;96.57;99038.34;5043517;28;19948;-50
2022/06/09 15:34:58;;;;;;;;;;;;;;;25.91;100.00;99033.75;5044350;28;20709;-49
2022/06/09 15:37:24;;;;;;;;;;;;;;;26.66;98.11;99027.38;5042796;28;19977;-52
2022/06/09 15:39:49;;;;;;;;;;;;;;;26.40;97.07;99029.88;5044979;28;19970;-48
2022/06/09 15:42:14;;;;;;;;;;;;;;;26.63;96.26;99026.81;5047409;28;20008;-51
2022/06/09 15:44:39;;;;;;;;;;;;;;;26.35;99.62;99036.59;5044682;28;20016;-50
2022/06/09 15:47:05;;;;;;;;;;;;;;;25.85;100.00;99033.34;5048487;28;20278;-47
2022/06/09 15:49:30;;;;;;;;;;;;;;;27.48;100.00;99038.56;5044938;28;19923;-49
2022/06/09 15:51:56;;;;;;;;;;;;;;;28.30;100.00;99036.25;5023726;28;19921;-48
2022/06/09 15:54:21;;;;;;;;;;;;;;;28.24;100.00;99036.13;5043647;28;19974;-49
2022/06/09 15:56:46;;;;;;;;;;;;;;;27.16;98.80;99038.31;5044195;28;20655;-53
2022/06/09 15:59:11;;;;;;;;;;;;;;;27.64;100.00;99042.28;5046536;28;20107;-50
2022/06/09 16:01:36;;;;;;;;;;;;;;;27.22;100.00;99048.31;5043278;28;19921;-49
2022/06/09 16:04:02;;;;;;;;;;;;;;;28.03;93.84;99039.16;5044778;28;19920;-52
2022/06/09 16:06:27;;;;;;;;;;;;;;;27.57;93.84;99041.25;5044066;28;20533;-48
2022/06/09 16:08:52;;;;;;;;;;;;;;;28.98;95.80;99034.38;5045857;28;19928;-51
2022/06/09 16:11:20;;;;;;;;;;;;;;;29.70;90.42;99031.00;5042887;28;20691;-52
2022/06/09 16:13:46;;;;;;;;;;;;;;;27.97;90.20;99042.47;5027850;28;19921;-49
2022/06/09 16:16:11;;;;;;;;;;;;;;;27.13;99.48;99042.91;5040941;28;20327;-49
2022/06/09 16:18:36;;;;;;;;;;;;;;;28.67;91.40;99034.19;5043485;28;19920;-50
2022/06/09 16:21:01;;;;;;;;;;;;;;;30.34;84.75;99023.75;5043369;28;19927;-51
2022/06/09 16:23:27;;;;;;;;;;;;;;;31.37;80.94;99027.75;5041393;28;20551;-48
2022/06/09 16:25:52;;;;;;;;;;;;;;;28.64;82.06;99034.53;5044377;28;19917;-48
2022/06/09 16:28:19;;;;;;;;;;;;;;;26.22;94.22;99044.84;5046244;28;19931;-51
2022/06/09 16:30:45;;;;;;;;;;;;;;;26.74;92.78;99054.84;5042462;28;19921;-48